sensor_id;sensor_type;location;lat;lon;timestamp;noise_LAeq;noise_LA_min;noise_LA_max;noise_LA01;noise_LA95
1754;Laerm;58380;48.312;9.246;2024-03-02T07:41:17;46.67;33.82;62.92;;
1754;Laerm;58380;48.312;9.246;2024-03-02T07:44:18;48.07;35.83;62.71;;
1754;Laerm;58380;48.312;9.246;2024-03-02T07:47:19;55.57;36.42;79.18;;
1754;Laerm;58380;48.312;9.246;2024-03-02T07:50:19;61.81;35.26;86.62;;
1754;Laerm;58380;48.312;9.246;2024-03-02T07:53:20;48.75;38.47;68.79;;
1754;Laerm;58380;48.312;9.246;2024-03-02T07:56:20;50.93;37.43;63.27;;
1754;Laerm;58380;48.312;9.246;2024-03-02T07:59:22;51.87;34.28;72.61;;
1754;Laerm;58380;48.312;9.246;2024-03-02T08:02:23;48.83;37.23;69.80;;
1754;Laerm;58380;48.312;9.246;2024-03-02T08:05:23;48.35;36.83;62.57;;
1754;Laerm;58380;48.312;9.246;2024-03-02T08:08:24;63.52;37.20;82.05;;
1754;Laerm;58380;48.312;9.246;2024-03-02T08:11:24;59.11;34.65;82.11;;
1754;Laerm;58380;48.312;9.246;2024-03-02T08:14:24;48.51;36.01;68.50;;
1754;Laerm;58380;48.312;9.246;2024-03-02T08:17:25;48.73;36.55;62.78;;
1754;Laerm;58380;48.312;9.246;2024-03-02T08:20:25;47.10;37.47;66.97;;
1754;Laerm;58380;48.312;9.246;2024-03-02T08:23:26;48.75;36.79;62.95;;
1754;Laerm;58380;48.312;9.246;2024-03-02T08:26:27;46.28;36.83;59.94;;
1754;Laerm;58380;48.312;9.246;2024-03-02T08:29:30;49.85;37.08;65.07;;
1754;Laerm;58380;48.312;9.246;2024-03-02T08:32:30;57.99;36.04;81.49;;
1754;Laerm;58380;48.312;9.246;2024-03-02T08:35:30;59.37;37.57;80.19;;
1754;Laerm;58380;48.312;9.246;2024-03-02T08:38:35;48.45;38.88;75.62;;
1754;Laerm;58380;48.312;9.246;2024-03-02T08:41:36;55.94;36.55;79.55;;
1754;Laerm;58380;48.312;9.246;2024-03-02T08:44:36;51.94;36.01;73.78;;
1754;Laerm;58380;48.312;9.246;2024-03-02T08:47:37;55.30;36.33;78.54;;
1754;Laerm;58380;48.312;9.246;2024-03-02T08:50:37;49.49;35.79;75.09;;
1754;Laerm;58380;48.312;9.246;2024-03-02T08:53:38;45.33;35.95;53.71;;
1754;Laerm;58380;48.312;9.246;2024-03-02T08:56:38;54.60;36.87;79.03;;
1754;Laerm;58380;48.312;9.246;2024-03-02T08:59:39;46.82;38.07;59.99;;
1754;Laerm;58380;48.312;9.246;2024-03-02T09:02:39;47.66;36.69;61.58;;
1754;Laerm;58380;48.312;9.246;2024-03-02T09:05:40;60.12;38.41;89.12;;
1754;Laerm;58380;48.312;9.246;2024-03-02T09:08:40;52.42;36.85;70.25;;
1754;Laerm;58380;48.312;9.246;2024-03-02T09:11:40;47.65;34.51;64.06;;
1754;Laerm;58380;48.312;9.246;2024-03-02T09:14:41;46.74;37.53;61.78;;
1754;Laerm;58380;48.312;9.246;2024-03-02T09:17:41;46.85;35.10;60.90;;
1754;Laerm;58380;48.312;9.246;2024-03-02T09:20:42;45.21;36.85;59.17;;
1754;Laerm;58380;48.312;9.246;2024-03-02T09:23:42;45.78;36.88;58.08;;
1754;Laerm;58380;48.312;9.246;2024-03-02T09:26:44;44.58;35.74;54.83;;
1754;Laerm;58380;48.312;9.246;2024-03-02T09:29:44;51.58;34.88;75.95;;
1754;Laerm;58380;48.312;9.246;2024-03-02T09:32:45;42.64;34.13;58.25;;
1754;Laerm;58380;48.312;9.246;2024-03-02T09:35:45;47.23;34.74;63.16;;
1754;Laerm;58380;48.312;9.246;2024-03-02T09:38:46;44.93;35.26;66.23;;
1754;Laerm;58380;48.312;9.246;2024-03-02T09:41:48;47.41;35.17;60.88;;
1754;Laerm;58380;48.312;9.246;2024-03-02T09:44:48;44.56;35.24;57.83;;
1754;Laerm;58380;48.312;9.246;2024-03-02T09:47:49;44.33;35.12;54.65;;
1754;Laerm;58380;48.312;9.246;2024-03-02T09:50:49;69.10;37.94;90.59;;
1754;Laerm;58380;48.312;9.246;2024-03-02T09:53:50;70.64;37.93;97.03;;
1754;Laerm;58380;48.312;9.246;2024-03-02T09:56:50;65.62;37.42;89.98;;
1754;Laerm;58380;48.312;9.246;2024-03-02T09:59:51;58.44;38.41;86.19;;
1754;Laerm;58380;48.312;9.246;2024-03-02T10:02:52;47.88;35.31;68.58;;
1754;Laerm;58380;48.312;9.246;2024-03-02T10:05:52;47.08;34.51;60.57;;
1754;Laerm;58380;48.312;9.246;2024-03-02T10:08:54;47.55;39.19;58.87;;
1754;Laerm;58380;48.312;9.246;2024-03-02T10:12:04;44.67;36.35;52.55;;
1754;Laerm;58380;48.312;9.246;2024-03-02T10:15:06;44.76;37.61;54.96;;
1754;Laerm;58380;48.312;9.246;2024-03-02T10:18:11;48.81;38.32;76.73;;
1754;Laerm;58380;48.312;9.246;2024-03-02T10:21:13;47.32;36.40;67.76;;
1754;Laerm;58380;48.312;9.246;2024-03-02T10:24:15;46.44;36.80;62.52;;
1754;Laerm;58380;48.312;9.246;2024-03-02T10:27:26;49.78;37.91;73.97;;
1754;Laerm;58380;48.312;9.246;2024-03-02T10:30:27;45.07;33.25;58.85;;
1754;Laerm;58380;48.312;9.246;2024-03-02T10:33:28;46.03;37.92;57.57;;
1754;Laerm;58380;48.312;9.246;2024-03-02T10:36:28;47.01;36.56;61.55;;
1754;Laerm;58380;48.312;9.246;2024-03-02T10:39:30;48.18;34.22;61.56;;
1754;Laerm;58380;48.312;9.246;2024-03-02T10:42:31;46.08;35.52;59.11;;
1754;Laerm;58380;48.312;9.246;2024-03-02T10:45:32;47.60;35.96;59.43;;
1754;Laerm;58380;48.312;9.246;2024-03-02T10:48:35;46.68;34.19;59.88;;
1754;Laerm;58380;48.312;9.246;2024-03-02T10:51:36;45.54;36.74;55.21;;
1754;Laerm;58380;48.312;9.246;2024-03-02T10:54:37;44.73;35.31;58.35;;
1754;Laerm;58380;48.312;9.246;2024-03-02T10:57:51;44.67;36.01;62.08;;
1754;Laerm;58380;48.312;9.246;2024-03-02T11:00:52;47.51;35.11;67.01;;
1754;Laerm;58380;48.312;9.246;2024-03-02T11:03:53;44.49;36.43;55.30;;
1754;Laerm;58380;48.312;9.246;2024-03-02T11:07:02;46.19;35.46;58.15;;
1754;Laerm;58380;48.312;9.246;2024-03-02T11:10:07;47.99;37.28;61.42;;
1754;Laerm;58380;48.312;9.246;2024-03-02T11:13:09;48.25;37.55;60.70;;
1754;Laerm;58380;48.312;9.246;2024-03-02T11:16:27;46.35;32.85;61.75;;
1754;Laerm;58380;48.312;9.246;2024-03-02T11:19:34;44.84;32.62;57.39;;
1754;Laerm;58380;48.312;9.246;2024-03-02T11:22:36;44.93;38.37;60.77;;
1754;Laerm;58380;48.312;9.246;2024-03-02T11:25:37;45.86;36.79;58.07;;
1754;Laerm;58380;48.312;9.246;2024-03-02T11:28:39;46.68;37.71;73.04;;
1754;Laerm;58380;48.312;9.246;2024-03-02T11:31:58;50.29;35.62;75.53;;
1754;Laerm;58380;48.312;9.246;2024-03-02T11:35:02;46.69;36.98;53.90;;
1754;Laerm;58380;48.312;9.246;2024-03-02T11:38:03;46.42;36.92;59.17;;
1754;Laerm;58380;48.312;9.246;2024-03-02T11:41:07;46.34;34.92;57.38;;
1754;Laerm;58380;48.312;9.246;2024-03-02T11:44:08;48.14;34.71;64.16;;
1754;Laerm;58380;48.312;9.246;2024-03-02T11:47:15;50.21;36.36;64.27;;
1754;Laerm;58380;48.312;9.246;2024-03-02T11:50:16;48.04;38.09;63.37;;
1754;Laerm;58380;48.312;9.246;2024-03-02T11:53:30;49.28;35.77;64.73;;
1754;Laerm;58380;48.312;9.246;2024-03-02T11:56:32;50.83;35.11;64.20;;
1754;Laerm;58380;48.312;9.246;2024-03-02T11:59:33;49.99;36.13;62.57;;
1754;Laerm;58380;48.312;9.246;2024-03-02T12:02:34;48.64;35.40;59.43;;
1754;Laerm;58380;48.312;9.246;2024-03-02T12:05:35;47.72;39.90;61.27;;
1754;Laerm;58380;48.312;9.246;2024-03-02T12:08:36;46.69;36.01;64.61;;
1754;Laerm;58380;48.312;9.246;2024-03-02T12:11:36;47.11;37.08;72.31;;
1754;Laerm;58380;48.312;9.246;2024-03-02T12:14:38;47.47;33.80;70.15;;
1754;Laerm;58380;48.312;9.246;2024-03-02T12:17:38;49.30;35.93;66.13;;
1754;Laerm;58380;48.312;9.246;2024-03-02T12:20:39;46.26;39.35;58.31;;
1754;Laerm;58380;48.312;9.246;2024-03-02T12:23:39;46.38;36.54;60.60;;
1754;Laerm;58380;48.312;9.246;2024-03-02T12:26:40;46.43;35.77;63.92;;
1754;Laerm;58380;48.312;9.246;2024-03-02T12:29:40;45.07;33.76;53.46;;
1754;Laerm;58380;48.312;9.246;2024-03-02T12:32:41;46.60;37.76;61.38;;
1754;Laerm;58380;48.312;9.246;2024-03-02T12:35:42;46.81;38.54;58.37;;
1754;Laerm;58380;48.312;9.246;2024-03-02T12:38:45;45.25;38.27;57.27;;
1754;Laerm;58380;48.312;9.246;2024-03-02T12:41:46;45.05;36.37;54.35;;
1754;Laerm;58380;48.312;9.246;2024-03-02T12:44:47;47.44;38.91;63.61;;
1754;Laerm;58380;48.312;9.246;2024-03-02T12:47:48;46.50;39.28;60.55;;
1754;Laerm;58380;48.312;9.246;2024-03-02T12:50:49;45.43;37.66;60.45;;
1754;Laerm;58380;48.312;9.246;2024-03-02T12:53:57;44.73;34.86;52.55;;
1754;Laerm;58380;48.312;9.246;2024-03-02T12:56:58;43.88;35.59;56.83;;
1754;Laerm;58380;48.312;9.246;2024-03-02T13:00:03;45.00;36.64;53.97;;
1754;Laerm;58380;48.312;9.246;2024-03-02T13:03:09;45.97;38.65;57.16;;
1754;Laerm;58380;48.312;9.246;2024-03-02T13:06:09;45.20;38.33;52.59;;
1754;Laerm;58380;48.312;9.246;2024-03-02T13:09:10;48.01;36.95;58.67;;
1754;Laerm;58380;48.312;9.246;2024-03-02T13:12:16;46.80;38.19;56.61;;
1754;Laerm;58380;48.312;9.246;2024-03-02T13:15:17;46.33;34.50;60.13;;
1754;Laerm;58380;48.312;9.246;2024-03-02T13:18:18;44.10;34.39;59.26;;
1754;Laerm;58380;48.312;9.246;2024-03-02T13:21:18;47.30;36.24;67.00;;
1754;Laerm;58380;48.312;9.246;2024-03-02T13:24:18;45.52;38.44;57.32;;
1754;Laerm;58380;48.312;9.246;2024-03-02T13:27:20;48.13;34.93;76.03;;
1754;Laerm;58380;48.312;9.246;2024-03-02T13:30:21;48.39;37.36;75.89;;
1754;Laerm;58380;48.312;9.246;2024-03-02T13:33:21;47.73;35.80;68.61;;
1754;Laerm;58380;48.312;9.246;2024-03-02T13:36:24;44.65;34.42;65.28;;
1754;Laerm;58380;48.312;9.246;2024-03-02T13:39:25;46.27;36.65;76.71;;
1754;Laerm;58380;48.312;9.246;2024-03-02T13:42:25;51.86;35.13;78.08;;
1754;Laerm;58380;48.312;9.246;2024-03-02T13:45:27;43.70;32.91;64.24;;
1754;Laerm;58380;48.312;9.246;2024-03-02T13:48:28;45.46;33.19;64.99;;
1754;Laerm;58380;48.312;9.246;2024-03-02T13:51:28;50.84;39.44;65.43;;
1754;Laerm;58380;48.312;9.246;2024-03-02T13:54:29;45.86;36.69;60.36;;
1754;Laerm;58380;48.312;9.246;2024-03-02T13:57:30;45.92;36.15;70.15;;
1754;Laerm;58380;48.312;9.246;2024-03-02T14:00:31;48.00;34.64;60.75;;
1754;Laerm;58380;48.312;9.246;2024-03-02T14:03:31;46.41;40.56;60.88;;
1754;Laerm;58380;48.312;9.246;2024-03-02T14:06:32;46.54;38.19;63.30;;
1754;Laerm;58380;48.312;9.246;2024-03-02T14:09:32;52.43;38.13;68.44;;
1754;Laerm;58380;48.312;9.246;2024-03-02T14:12:32;45.42;36.91;58.95;;
1754;Laerm;58380;48.312;9.246;2024-03-02T14:15:33;43.86;36.15;53.46;;
1754;Laerm;58380;48.312;9.246;2024-03-02T14:18:33;46.52;36.53;66.25;;
1754;Laerm;58380;48.312;9.246;2024-03-02T14:21:34;44.71;36.65;58.35;;
1754;Laerm;58380;48.312;9.246;2024-03-02T14:24:35;47.12;39.98;64.73;;
1754;Laerm;58380;48.312;9.246;2024-03-02T14:27:36;48.02;34.98;79.24;;
1754;Laerm;58380;48.312;9.246;2024-03-02T14:30:36;45.47;36.84;61.93;;
1754;Laerm;58380;48.312;9.246;2024-03-02T14:33:37;49.75;35.49;67.77;;
1754;Laerm;58380;48.312;9.246;2024-03-02T14:36:37;45.88;35.82;68.79;;
1754;Laerm;58380;48.312;9.246;2024-03-02T14:39:38;50.98;38.05;76.00;;
1754;Laerm;58380;48.312;9.246;2024-03-02T14:42:39;46.76;38.78;70.50;;
1754;Laerm;58380;48.312;9.246;2024-03-02T14:45:40;46.36;36.84;62.85;;
1754;Laerm;58380;48.312;9.246;2024-03-02T14:48:40;45.30;37.10;60.23;;
1754;Laerm;58380;48.312;9.246;2024-03-02T14:51:40;45.89;36.50;57.55;;
1754;Laerm;58380;48.312;9.246;2024-03-02T14:54:41;47.67;39.14;66.76;;
1754;Laerm;58380;48.312;9.246;2024-03-02T14:57:42;45.20;35.04;60.31;;
1754;Laerm;58380;48.312;9.246;2024-03-02T15:00:43;47.97;37.01;63.87;;
1754;Laerm;58380;48.312;9.246;2024-03-02T15:03:43;47.54;38.05;67.25;;
1754;Laerm;58380;48.312;9.246;2024-03-02T15:06:44;46.76;38.27;56.62;;
1754;Laerm;58380;48.312;9.246;2024-03-02T15:09:44;44.36;38.24;53.65;;
1754;Laerm;58380;48.312;9.246;2024-03-02T15:12:45;46.78;37.07;67.76;;
1754;Laerm;58380;48.312;9.246;2024-03-02T15:15:45;46.01;36.00;55.33;;
1754;Laerm;58380;48.312;9.246;2024-03-02T15:18:46;55.27;35.52;71.30;;
1754;Laerm;58380;48.312;9.246;2024-03-02T15:21:46;46.99;37.72;60.11;;
1754;Laerm;58380;48.312;9.246;2024-03-02T15:24:47;45.95;39.02;58.58;;
1754;Laerm;58380;48.312;9.246;2024-03-02T15:27:47;46.32;38.72;54.43;;
1754;Laerm;58380;48.312;9.246;2024-03-02T15:30:47;51.68;39.50;72.51;;
1754;Laerm;58380;48.312;9.246;2024-03-02T15:33:48;46.28;39.69;57.91;;
1754;Laerm;58380;48.312;9.246;2024-03-02T15:36:49;48.08;39.45;59.28;;
1754;Laerm;58380;48.312;9.246;2024-03-02T15:39:50;47.56;37.19;61.81;;
1754;Laerm;58380;48.312;9.246;2024-03-02T15:42:50;46.63;38.05;57.35;;
1754;Laerm;58380;48.312;9.246;2024-03-02T15:45:51;45.36;36.50;60.89;;
1754;Laerm;58380;48.312;9.246;2024-03-02T15:48:51;48.54;35.23;64.21;;
1754;Laerm;58380;48.312;9.246;2024-03-02T15:51:51;46.06;38.10;61.17;;
1754;Laerm;58380;48.312;9.246;2024-03-02T15:54:52;44.82;38.19;51.25;;
1754;Laerm;58380;48.312;9.246;2024-03-02T15:57:52;43.94;37.74;56.19;;
1754;Laerm;58380;48.312;9.246;2024-03-02T16:00:53;49.81;37.86;63.65;;
1754;Laerm;58380;48.312;9.246;2024-03-02T16:03:53;45.59;36.41;58.42;;
1754;Laerm;58380;48.312;9.246;2024-03-02T16:06:53;46.35;35.53;59.55;;
1754;Laerm;58380;48.312;9.246;2024-03-02T16:09:54;44.54;38.20;58.04;;
1754;Laerm;58380;48.312;9.246;2024-03-02T16:12:54;45.46;37.23;63.69;;
1754;Laerm;58380;48.312;9.246;2024-03-02T16:15:59;47.24;36.71;69.17;;
1754;Laerm;58380;48.312;9.246;2024-03-02T16:19:00;46.33;34.99;66.55;;
1754;Laerm;58380;48.312;9.246;2024-03-02T16:22:00;47.63;37.67;61.34;;
1754;Laerm;58380;48.312;9.246;2024-03-02T16:25:00;45.84;35.48;59.04;;
1754;Laerm;58380;48.312;9.246;2024-03-02T16:28:01;44.07;34.65;55.52;;
1754;Laerm;58380;48.312;9.246;2024-03-02T16:31:03;45.28;35.37;60.99;;
1754;Laerm;58380;48.312;9.246;2024-03-02T16:34:04;45.31;38.51;54.91;;
1754;Laerm;58380;48.312;9.246;2024-03-02T16:37:04;47.10;37.84;55.47;;
1754;Laerm;58380;48.312;9.246;2024-03-02T16:40:05;51.98;39.03;70.94;;
1754;Laerm;58380;48.312;9.246;2024-03-02T16:43:06;45.47;35.80;64.29;;
1754;Laerm;58380;48.312;9.246;2024-03-02T16:46:08;44.64;37.86;53.24;;
1754;Laerm;58380;48.312;9.246;2024-03-02T16:49:09;51.37;38.97;68.25;;
1754;Laerm;58380;48.312;9.246;2024-03-02T16:52:09;45.47;39.50;51.80;;
1754;Laerm;58380;48.312;9.246;2024-03-02T16:55:10;45.24;39.14;53.21;;
1754;Laerm;58380;48.312;9.246;2024-03-02T16:58:10;46.46;37.19;55.02;;
1754;Laerm;58380;48.312;9.246;2024-03-02T17:01:11;44.94;35.36;54.72;;
1754;Laerm;58380;48.312;9.246;2024-03-02T17:04:11;46.44;38.45;70.09;;
1754;Laerm;58380;48.312;9.246;2024-03-02T17:07:11;46.40;38.28;69.06;;
1754;Laerm;58380;48.312;9.246;2024-03-02T17:10:12;46.28;38.04;58.57;;
1754;Laerm;58380;48.312;9.246;2024-03-02T17:13:13;46.33;39.97;54.18;;
1754;Laerm;58380;48.312;9.246;2024-03-02T17:16:13;48.44;36.76;61.34;;
1754;Laerm;58380;48.312;9.246;2024-03-02T17:19:17;46.51;37.55;53.85;;
1754;Laerm;58380;48.312;9.246;2024-03-02T17:22:18;46.98;38.83;63.75;;
1754;Laerm;58380;48.312;9.246;2024-03-02T17:25:18;45.55;37.89;59.10;;
1754;Laerm;58380;48.312;9.246;2024-03-02T17:28:24;45.65;37.91;56.14;;
1754;Laerm;58380;48.312;9.246;2024-03-02T17:31:26;45.57;36.77;53.73;;
1754;Laerm;58380;48.312;9.246;2024-03-02T17:34:26;45.05;38.46;52.20;;
1754;Laerm;58380;48.312;9.246;2024-03-02T17:37:28;46.28;38.83;55.13;;
1754;Laerm;58380;48.312;9.246;2024-03-02T17:40:28;44.57;36.10;65.04;;
1754;Laerm;58380;48.312;9.246;2024-03-02T17:43:28;45.69;39.71;52.37;;
1754;Laerm;58380;48.312;9.246;2024-03-02T17:46:29;45.71;37.98;54.62;;
1754;Laerm;58380;48.312;9.246;2024-03-02T17:49:29;43.01;33.68;54.20;;
1754;Laerm;58380;48.312;9.246;2024-03-02T17:52:29;45.75;37.13;52.73;;
1754;Laerm;58380;48.312;9.246;2024-03-02T17:55:30;45.07;36.68;58.32;;
1754;Laerm;58380;48.312;9.246;2024-03-02T17:58:31;45.39;35.68;53.06;;
1754;Laerm;58380;48.312;9.246;2024-03-02T18:01:32;42.71;34.18;50.81;;
1754;Laerm;58380;48.312;9.246;2024-03-02T18:04:33;44.54;36.51;51.64;;
1754;Laerm;58380;48.312;9.246;2024-03-02T18:07:33;43.54;38.28;51.03;;
1754;Laerm;58380;48.312;9.246;2024-03-02T18:10:36;44.08;35.72;51.78;;
1754;Laerm;58380;48.312;9.246;2024-03-02T18:13:36;51.75;38.29;78.77;;
1754;Laerm;58380;48.312;9.246;2024-03-02T18:16:37;44.63;37.48;58.27;;
1754;Laerm;58380;48.312;9.246;2024-03-02T18:19:37;44.27;38.33;53.58;;
1754;Laerm;58380;48.312;9.246;2024-03-02T18:22:38;44.23;34.60;52.50;;
1754;Laerm;58380;48.312;9.246;2024-03-02T18:25:38;46.29;38.63;58.40;;
1754;Laerm;58380;48.312;9.246;2024-03-02T18:28:39;43.31;36.87;51.25;;
1754;Laerm;58380;48.312;9.246;2024-03-02T18:31:40;43.26;36.17;49.63;;
1754;Laerm;58380;48.312;9.246;2024-03-02T18:34:40;42.44;36.42;51.18;;
1754;Laerm;58380;48.312;9.246;2024-03-02T18:37:41;43.94;36.73;53.24;;
1754;Laerm;58380;48.312;9.246;2024-03-02T18:40:43;45.31;37.62;69.06;;
1754;Laerm;58380;48.312;9.246;2024-03-02T18:43:47;43.72;36.74;50.52;;
1754;Laerm;58380;48.312;9.246;2024-03-02T18:46:48;44.69;37.40;51.06;;
1754;Laerm;58380;48.312;9.246;2024-03-02T18:49:48;41.84;34.03;50.73;;
1754;Laerm;58380;48.312;9.246;2024-03-02T18:52:48;44.61;39.21;52.28;;
1754;Laerm;58380;48.312;9.246;2024-03-02T18:55:49;44.21;38.71;50.29;;
1754;Laerm;58380;48.312;9.246;2024-03-02T18:58:49;41.62;33.70;53.61;;
1754;Laerm;58380;48.312;9.246;2024-03-02T19:01:50;44.11;35.70;51.89;;
1754;Laerm;58380;48.312;9.246;2024-03-02T19:04:51;42.51;33.66;51.18;;
1754;Laerm;58380;48.312;9.246;2024-03-02T19:07:52;41.85;33.63;49.96;;
1754;Laerm;58380;48.312;9.246;2024-03-02T19:10:52;42.27;34.69;60.03;;
1754;Laerm;58380;48.312;9.246;2024-03-02T19:13:53;42.06;34.24;54.53;;
1754;Laerm;58380;48.312;9.246;2024-03-02T19:16:53;43.65;35.59;56.56;;
1754;Laerm;58380;48.312;9.246;2024-03-02T19:19:54;44.96;36.72;56.76;;
1754;Laerm;58380;48.312;9.246;2024-03-02T19:22:54;45.14;36.77;51.75;;
1754;Laerm;58380;48.312;9.246;2024-03-02T19:25:55;43.90;37.62;53.96;;
1754;Laerm;58380;48.312;9.246;2024-03-02T19:28:56;47.06;35.08;70.28;;
1754;Laerm;58380;48.312;9.246;2024-03-02T19:31:57;41.96;34.47;55.51;;
1754;Laerm;58380;48.312;9.246;2024-03-02T19:34:58;43.62;36.33;52.53;;
1754;Laerm;58380;48.312;9.246;2024-03-02T19:37:58;42.52;33.69;50.88;;
1754;Laerm;58380;48.312;9.246;2024-03-02T19:40:59;41.66;33.66;53.33;;
1754;Laerm;58380;48.312;9.246;2024-03-02T19:43:59;44.13;36.67;51.54;;
1754;Laerm;58380;48.312;9.246;2024-03-02T19:46:59;42.09;33.23;52.20;;
1754;Laerm;58380;48.312;9.246;2024-03-02T19:50:00;43.16;37.10;51.24;;
1754;Laerm;58380;48.312;9.246;2024-03-02T19:53:00;41.46;32.64;50.25;;
1754;Laerm;58380;48.312;9.246;2024-03-02T19:56:03;42.66;34.14;55.58;;
1754;Laerm;58380;48.312;9.246;2024-03-02T19:59:03;42.81;33.80;54.07;;
1754;Laerm;58380;48.312;9.246;2024-03-02T20:02:04;42.56;33.74;59.80;;
1754;Laerm;58380;48.312;9.246;2024-03-02T20:05:10;41.52;33.01;54.37;;
1754;Laerm;58380;48.312;9.246;2024-03-02T20:08:12;40.53;32.69;50.93;;
1754;Laerm;58380;48.312;9.246;2024-03-02T20:11:12;42.11;34.85;53.47;;
1754;Laerm;58380;48.312;9.246;2024-03-02T20:14:13;43.39;35.17;64.43;;
1754;Laerm;58380;48.312;9.246;2024-03-02T20:17:14;45.51;39.00;51.65;;
1754;Laerm;58380;48.312;9.246;2024-03-02T20:20:15;41.77;34.11;58.22;;
1754;Laerm;58380;48.312;9.246;2024-03-02T20:23:16;42.88;35.11;54.66;;
1754;Laerm;58380;48.312;9.246;2024-03-02T20:26:17;44.15;37.55;57.65;;
1754;Laerm;58380;48.312;9.246;2024-03-02T20:29:18;42.68;31.99;52.59;;
1754;Laerm;58380;48.312;9.246;2024-03-02T20:32:19;41.33;33.11;52.86;;
1754;Laerm;58380;48.312;9.246;2024-03-02T20:35:20;41.16;34.03;51.65;;
1754;Laerm;58380;48.312;9.246;2024-03-02T20:38:20;43.24;32.61;50.60;;
1754;Laerm;58380;48.312;9.246;2024-03-02T20:41:20;42.28;33.97;50.98;;
1754;Laerm;58380;48.312;9.246;2024-03-02T20:44:21;43.59;34.13;60.56;;
1754;Laerm;58380;48.312;9.246;2024-03-02T20:47:21;43.05;35.48;50.85;;
1754;Laerm;58380;48.312;9.246;2024-03-02T20:50:22;41.04;32.25;50.14;;
1754;Laerm;58380;48.312;9.246;2024-03-02T20:53:23;38.48;31.90;48.11;;
1754;Laerm;58380;48.312;9.246;2024-03-02T20:56:24;38.13;31.67;51.34;;
1754;Laerm;58380;48.312;9.246;2024-03-02T20:59:24;42.84;35.04;52.28;;
1754;Laerm;58380;48.312;9.246;2024-03-02T21:02:27;41.88;35.42;50.10;;
1754;Laerm;58380;48.312;9.246;2024-03-02T21:05:28;40.87;32.30;56.30;;
1754;Laerm;58380;48.312;9.246;2024-03-02T21:08:28;37.79;31.91;49.34;;
1754;Laerm;58380;48.312;9.246;2024-03-02T21:11:29;43.57;33.10;53.00;;
1754;Laerm;58380;48.312;9.246;2024-03-02T21:14:29;40.30;32.99;51.35;;
1754;Laerm;58380;48.312;9.246;2024-03-02T21:17:30;40.95;34.00;47.72;;
1754;Laerm;58380;48.312;9.246;2024-03-02T21:20:30;39.85;32.29;47.32;;
1754;Laerm;58380;48.312;9.246;2024-03-02T21:23:31;39.38;31.90;49.15;;
1754;Laerm;58380;48.312;9.246;2024-03-02T21:26:40;40.07;31.99;49.36;;
1754;Laerm;58380;48.312;9.246;2024-03-02T21:29:41;42.47;33.36;51.60;;
1754;Laerm;58380;48.312;9.246;2024-03-02T21:32:42;37.78;31.86;48.95;;
1754;Laerm;58380;48.312;9.246;2024-03-02T21:35:42;39.99;31.85;48.15;;
1754;Laerm;58380;48.312;9.246;2024-03-02T21:38:43;41.28;32.57;51.96;;
1754;Laerm;58380;48.312;9.246;2024-03-02T21:41:43;41.00;33.27;49.38;;
1754;Laerm;58380;48.312;9.246;2024-03-02T21:44:45;39.98;31.68;51.77;;
1754;Laerm;58380;48.312;9.246;2024-03-02T21:47:45;39.88;31.36;54.05;;
1754;Laerm;58380;48.312;9.246;2024-03-02T21:50:46;37.15;31.17;45.37;;
1754;Laerm;58380;48.312;9.246;2024-03-02T21:53:46;41.65;32.89;50.34;;
1754;Laerm;58380;48.312;9.246;2024-03-02T21:56:47;43.51;33.09;50.85;;
1754;Laerm;58380;48.312;9.246;2024-03-02T21:59:48;37.18;31.31;46.72;;
1754;Laerm;58380;48.312;9.246;2024-03-02T22:02:48;40.32;33.27;47.91;;
1754;Laerm;58380;48.312;9.246;2024-03-02T22:05:48;39.03;32.04;46.34;;
1754;Laerm;58380;48.312;9.246;2024-03-02T22:08:49;40.46;33.60;48.27;;
1754;Laerm;58380;48.312;9.246;2024-03-02T22:11:49;41.11;31.97;48.66;;
1754;Laerm;58380;48.312;9.246;2024-03-02T22:14:50;42.57;33.54;50.92;;
1754;Laerm;58380;48.312;9.246;2024-03-02T22:17:50;40.22;32.80;48.22;;
1754;Laerm;58380;48.312;9.246;2024-03-02T22:20:51;38.99;32.62;47.68;;
1754;Laerm;58380;48.312;9.246;2024-03-02T22:23:51;38.85;32.78;48.12;;
1754;Laerm;58380;48.312;9.246;2024-03-02T22:26:52;39.84;32.92;48.01;;
1754;Laerm;58380;48.312;9.246;2024-03-02T22:29:53;40.06;32.30;48.69;;
1754;Laerm;58380;48.312;9.246;2024-03-02T22:32:53;37.92;31.04;49.76;;
